Time;durP1;ratioP1;P1;durP2;ratioP2;P2;SDS_P1;SDS_P2;PMS_P1;PMS_P2;Temp;Humidity;BMP_temperature;BMP_pressure;BME280_temperature;BME280_humidity;BME280_pressure;Samples;Min_cycle;Max_cycle;Signal;HPM_P1;HPM_P2
2022/08/08 00:01:41;;;;;;;;;;;15.10;71.30;;;;;;4943632;29;19910;-84
2022/08/08 00:04:25;;;;;;;;;;;15.00;70.20;;;;;;4935907;28;20333;-83
2022/08/08 00:07:01;;;;;;;;;;;15.00;70.90;;;;;;4938373;28;19929;-84
2022/08/08 00:09:35;;;;;;;;;;;14.90;70.40;;;;;;4932870;29;19921;-83
2022/08/08 00:12:08;;;;;;;;;;;14.90;70.00;;;;;;4944147;29;20013;-84
2022/08/08 00:14:43;;;;;;;;;;;14.80;71.50;;;;;;4931395;29;19917;-85
2022/08/08 00:17:12;;;;;;;;;;;14.80;71.60;;;;;;4948681;28;19914;-84
2022/08/08 00:20:10;;;;;;;;;;;14.80;71.10;;;;;;4932980;29;19907;-85
2022/08/08 00:22:41;;;;;;;;;;;14.80;71.90;;;;;;4921951;29;19911;-84
2022/08/08 00:25:12;;;;;;;;;;;14.70;72.60;;;;;;4939883;28;19917;-85
2022/08/08 00:27:38;;;;;;;;;;;14.70;72.80;;;;;;4932476;28;19915;-85
2022/08/08 00:30:05;;;;;;;;;;;14.60;72.20;;;;;;4916491;29;20432;-85
2022/08/08 00:32:34;;;;;;;;;;;14.60;73.00;;;;;;4934234;29;19946;-83
2022/08/08 00:35:09;;;;;;;;;;;14.60;72.40;;;;;;4936936;29;19962;-85
2022/08/08 00:37:44;;;;;;;;;;;14.60;72.10;;;;;;4947988;28;19942;-84
2022/08/08 00:40:33;;;;;;;;;;;14.60;72.20;;;;;;4934562;29;19917;-85
2022/08/08 00:43:14;;;;;;;;;;;14.60;72.20;;;;;;4932037;29;19914;-85
2022/08/08 00:46:03;;;;;;;;;;;14.60;72.00;;;;;;4932243;28;20011;-85
2022/08/08 00:48:34;;;;;;;;;;;14.50;72.00;;;;;;4931384;29;20366;-85
2022/08/08 00:51:06;;;;;;;;;;;14.50;72.20;;;;;;4935528;29;19910;-84
2022/08/08 00:53:41;;;;;;;;;;;14.50;72.30;;;;;;4947770;28;19923;-85
2022/08/08 00:56:25;;;;;;;;;;;14.50;72.30;;;;;;4935876;28;19966;-86
2022/08/08 00:59:17;;;;;;;;;;;14.40;72.70;;;;;;4962781;28;19914;-84
2022/08/08 01:02:02;;;;;;;;;;;14.50;72.40;;;;;;4933913;28;19919;-83
2022/08/08 01:04:39;;;;;;;;;;;14.40;72.50;;;;;;4946270;28;19919;-84
2022/08/08 01:07:43;;;;;;;;;;;14.30;72.90;;;;;;4944926;28;19920;-84
2022/08/08 01:10:28;;;;;;;;;;;14.30;73.30;;;;;;4931050;29;19918;-84
2022/08/08 01:13:12;;;;;;;;;;;14.30;73.20;;;;;;4948230;29;19949;-84
2022/08/08 01:15:41;;;;;;;;;;;14.30;73.30;;;;;;4928654;29;19926;-85
2022/08/08 01:18:16;;;;;;;;;;;14.20;73.40;;;;;;4936027;29;19911;-84
2022/08/08 01:21:06;;;;;;;;;;;14.20;73.80;;;;;;4952680;28;20026;-85
2022/08/08 01:23:48;;;;;;;;;;;14.10;73.50;;;;;;4936818;28;19917;-83
2022/08/08 01:26:20;;;;;;;;;;;14.10;74.90;;;;;;4936810;29;19976;-83
2022/08/08 01:29:02;;;;;;;;;;;14.00;75.40;;;;;;4936535;28;20544;-85
2022/08/08 01:31:50;;;;;;;;;;;14.00;75.50;;;;;;4947124;28;20171;-85
2022/08/08 01:34:22;;;;;;;;;;;13.90;75.50;;;;;;4933670;29;19910;-84
2022/08/08 01:36:58;;;;;;;;;;;13.90;75.70;;;;;;4939603;28;19982;-83
2022/08/08 01:39:24;;;;;;;;;;;13.80;74.80;;;;;;4963816;28;19910;-84
2022/08/08 01:41:57;;;;;;;;;;;13.80;74.20;;;;;;4952365;28;20291;-84
2022/08/08 01:44:47;;;;;;;;;;;13.80;74.20;;;;;;4924355;29;19950;-84
2022/08/08 01:47:18;;;;;;;;;;;13.70;74.90;;;;;;4929809;29;19915;-84
2022/08/08 01:49:49;;;;;;;;;;;13.70;74.80;;;;;;4949094;28;19993;-85
2022/08/08 01:52:32;;;;;;;;;;;13.70;75.00;;;;;;4949617;28;19938;-83
2022/08/08 01:55:07;;;;;;;;;;;13.60;75.10;;;;;;4951352;28;19933;-84
2022/08/08 01:57:43;;;;;;;;;;;13.60;75.50;;;;;;4952226;28;19936;-84
2022/08/08 02:00:20;;;;;;;;;;;13.60;75.90;;;;;;4933050;29;20364;-86
2022/08/08 02:03:35;;;;;;;;;;;13.60;75.60;;;;;;4932256;29;19917;-84
2022/08/08 02:06:00;;;;;;;;;;;13.50;75.70;;;;;;4949699;29;19911;-84
2022/08/08 02:08:52;;;;;;;;;;;13.50;76.20;;;;;;4932017;29;19970;-84
2022/08/08 02:11:30;;;;;;;;;;;13.50;76.40;;;;;;4929113;29;20698;-87
2022/08/08 02:14:01;;;;;;;;;;;13.50;77.20;;;;;;4944214;28;19918;-85
2022/08/08 02:16:40;;;;;;;;;;;13.40;77.90;;;;;;4936995;28;20001;-86
2022/08/08 02:19:11;;;;;;;;;;;13.40;77.20;;;;;;4931582;28;19917;-84
2022/08/08 02:24:44;;;;;;;;;;;13.30;77.70;;;;;;4945322;28;20461;-87
2022/08/08 02:27:13;;;;;;;;;;;13.30;78.50;;;;;;4949402;28;19950;-87
2022/08/08 02:29:51;;;;;;;;;;;13.20;78.20;;;;;;4950372;28;19925;-86
2022/08/08 02:32:21;;;;;;;;;;;13.20;78.70;;;;;;4949009;28;20299;-87
2022/08/08 02:34:47;;;;;;;;;;;13.20;79.10;;;;;;4933328;28;20503;-85
2022/08/08 02:37:13;;;;;;;;;;;13.20;80.00;;;;;;4950317;28;19914;-84
2022/08/08 02:39:49;;;;;;;;;;;13.20;79.90;;;;;;4935322;28;20416;-84
2022/08/08 02:42:34;;;;;;;;;;;13.10;79.80;;;;;;4957910;28;19915;-85
2022/08/08 02:45:18;;;;;;;;;;;13.10;79.60;;;;;;4947994;28;19911;-86
2022/08/08 02:48:10;;;;;;;;;;;13.10;80.20;;;;;;4950798;28;20126;-86
2022/08/08 02:50:57;;;;;;;;;;;13.10;80.50;;;;;;4932795;28;20319;-86
2022/08/08 02:53:46;;;;;;;;;;;13.10;81.20;;;;;;4934577;29;19922;-86
2022/08/08 02:56:15;;;;;;;;;;;13.10;81.40;;;;;;4952933;28;20005;-87
2022/08/08 02:58:47;;;;;;;;;;;13.00;81.80;;;;;;4937338;29;19942;-86
2022/08/08 03:01:32;;;;;;;;;;;13.00;83.20;;;;;;4941610;29;19978;-87
2022/08/08 03:04:17;;;;;;;;;;;13.00;83.70;;;;;;4933785;28;19918;-85
2022/08/08 03:06:49;;;;;;;;;;;12.90;83.10;;;;;;4943058;29;20012;-86
2022/08/08 03:09:34;;;;;;;;;;;12.90;83.90;;;;;;4948084;28;19930;-87
2022/08/08 03:12:09;;;;;;;;;;;12.90;84.20;;;;;;4944656;28;19915;-86
2022/08/08 03:14:47;;;;;;;;;;;12.80;84.70;;;;;;4952659;28;20300;-86
2022/08/08 03:17:31;;;;;;;;;;;12.80;84.40;;;;;;4946968;29;19911;-87
2022/08/08 03:20:09;;;;;;;;;;;12.70;84.10;;;;;;4953577;28;19914;-87
2022/08/08 03:22:42;;;;;;;;;;;12.70;84.60;;;;;;4943717;28;19938;-86
2022/08/08 03:25:08;;;;;;;;;;;12.70;84.60;;;;;;4949102;28;19919;-86
2022/08/08 03:27:39;;;;;;;;;;;12.60;84.90;;;;;;4952030;28;19921;-87
2022/08/08 03:30:07;;;;;;;;;;;12.60;85.00;;;;;;4919415;29;20319;-85
2022/08/08 03:35:20;;;;;;;;;;;12.50;85.70;;;;;;4951312;28;19915;-85
2022/08/08 03:37:46;;;;;;;;;;;12.50;85.40;;;;;;4928004;29;20332;-86
2022/08/08 03:40:12;;;;;;;;;;;12.50;85.70;;;;;;4929190;29;20284;-87
2022/08/08 03:42:40;;;;;;;;;;;12.40;85.80;;;;;;4949491;28;19911;-86
2022/08/08 03:45:17;;;;;;;;;;;12.40;85.70;;;;;;4952032;28;20260;-86
2022/08/08 03:47:44;;;;;;;;;;;12.40;85.50;;;;;;4952506;28;19965;-86
2022/08/08 03:50:17;;;;;;;;;;;12.40;85.50;;;;;;4940706;28;19914;-85
2022/08/08 03:52:43;;;;;;;;;;;12.40;85.90;;;;;;4917205;29;19958;-87
2022/08/08 03:55:10;;;;;;;;;;;12.40;85.70;;;;;;4932786;29;19958;-86
2022/08/08 03:57:36;;;;;;;;;;;12.30;87.00;;;;;;4947756;28;19911;-84
2022/08/08 04:00:10;;;;;;;;;;;12.30;87.40;;;;;;4933546;29;19914;-85
2022/08/08 04:02:38;;;;;;;;;;;12.30;87.50;;;;;;4933174;29;19925;-86
2022/08/08 04:05:05;;;;;;;;;;;12.30;87.10;;;;;;4932694;29;19907;-86
2022/08/08 04:07:38;;;;;;;;;;;12.30;88.20;;;;;;4920652;29;19921;-87
2022/08/08 04:10:05;;;;;;;;;;;12.30;88.10;;;;;;4950618;28;20303;-87
2022/08/08 04:12:34;;;;;;;;;;;12.30;88.70;;;;;;4943303;28;19918;-87
2022/08/08 04:15:00;;;;;;;;;;;12.30;88.10;;;;;;4938535;28;19938;-86
2022/08/08 04:17:26;;;;;;;;;;;12.30;88.50;;;;;;4952846;28;19922;-87
2022/08/08 04:19:51;;;;;;;;;;;12.30;89.30;;;;;;4934921;29;20229;-86
2022/08/08 04:22:17;;;;;;;;;;;12.30;90.00;;;;;;4930046;29;19918;-86
2022/08/08 04:24:43;;;;;;;;;;;12.30;90.40;;;;;;4933267;28;19911;-86
2022/08/08 04:27:10;;;;;;;;;;;12.30;90.30;;;;;;4918773;29;19930;-86
2022/08/08 04:29:36;;;;;;;;;;;12.30;90.20;;;;;;4923774;29;19915;-87
2022/08/08 04:32:07;;;;;;;;;;;12.30;90.20;;;;;;4956907;28;19996;-86
2022/08/08 04:34:33;;;;;;;;;;;12.40;90.50;;;;;;4933754;29;19993;-84
2022/08/08 04:36:59;;;;;;;;;;;12.40;90.60;;;;;;4950214;28;19950;-86
2022/08/08 04:39:25;;;;;;;;;;;12.40;91.00;;;;;;4922602;28;20383;-85
2022/08/08 04:41:51;;;;;;;;;;;12.40;91.20;;;;;;4932365;28;19924;-87
2022/08/08 04:44:17;;;;;;;;;;;12.40;91.30;;;;;;4938122;29;19914;-87
2022/08/08 04:46:43;;;;;;;;;;;12.50;91.40;;;;;;4951853;28;19925;-85
2022/08/08 04:49:09;;;;;;;;;;;12.50;91.70;;;;;;4928980;29;19960;-87
2022/08/08 04:51:35;;;;;;;;;;;12.50;91.60;;;;;;4936356;29;19962;-87
2022/08/08 04:54:01;;;;;;;;;;;12.50;92.20;;;;;;4938244;29;19915;-86
2022/08/08 04:56:26;;;;;;;;;;;12.60;92.30;;;;;;4936212;29;19921;-87
2022/08/08 04:58:52;;;;;;;;;;;12.60;92.50;;;;;;4933776;28;19918;-87
2022/08/08 05:01:19;;;;;;;;;;;12.60;92.50;;;;;;4943071;29;19915;-87
2022/08/08 05:03:48;;;;;;;;;;;12.70;92.40;;;;;;4930410;29;19981;-86
2022/08/08 05:06:14;;;;;;;;;;;12.70;92.20;;;;;;4938796;29;20005;-85
2022/08/08 05:08:42;;;;;;;;;;;12.70;92.30;;;;;;4948021;28;19918;-86
2022/08/08 05:11:12;;;;;;;;;;;12.80;92.80;;;;;;4953083;28;20369;-85
2022/08/08 05:13:39;;;;;;;;;;;12.80;92.90;;;;;;4947585;28;19922;-88
2022/08/08 05:16:05;;;;;;;;;;;12.90;93.30;;;;;;4907510;29;20291;-85
2022/08/08 05:18:32;;;;;;;;;;;13.00;93.30;;;;;;4929677;28;19918;-87
2022/08/08 05:20:59;;;;;;;;;;;13.10;93.00;;;;;;4956786;28;19958;-84
2022/08/08 05:23:25;;;;;;;;;;;13.10;92.90;;;;;;4935293;29;19915;-84
2022/08/08 05:25:51;;;;;;;;;;;13.20;92.80;;;;;;4936537;29;19921;-85
2022/08/08 05:28:18;;;;;;;;;;;13.40;92.90;;;;;;4928139;29;19970;-84
2022/08/08 05:30:44;;;;;;;;;;;13.50;93.30;;;;;;4942854;28;19910;-84
2022/08/08 05:33:11;;;;;;;;;;;13.60;93.30;;;;;;4917062;28;20385;-82
2022/08/08 05:35:38;;;;;;;;;;;13.70;93.00;;;;;;4933499;29;19921;-84
2022/08/08 05:38:04;;;;;;;;;;;13.90;93.40;;;;;;4929312;29;20004;-84
2022/08/08 05:40:42;;;;;;;;;;;14.20;93.10;;;;;;4952362;28;19973;-84
2022/08/08 05:43:09;;;;;;;;;;;14.50;92.00;;;;;;4930149;29;20013;-84
2022/08/08 05:45:35;;;;;;;;;;;15.00;91.80;;;;;;4935589;28;20012;-85
2022/08/08 05:48:03;;;;;;;;;;;15.40;90.20;;;;;;4931873;29;20041;-86
2022/08/08 05:50:29;;;;;;;;;;;15.90;89.30;;;;;;4933970;29;19918;-86
2022/08/08 05:52:55;;;;;;;;;;;16.40;87.40;;;;;;4933724;29;19914;-86
2022/08/08 05:55:20;;;;;;;;;;;16.90;85.80;;;;;;4948807;29;20393;-87
2022/08/08 05:57:49;;;;;;;;;;;17.30;84.70;;;;;;4935223;29;19911;-84
2022/08/08 06:00:15;;;;;;;;;;;17.80;82.70;;;;;;4945722;28;19970;-84
2022/08/08 06:03:10;;;;;;;;;;;18.20;79.80;;;;;;4936226;29;19911;-85
2022/08/08 06:05:48;;;;;;;;;;;18.70;78.50;;;;;;4932940;29;20552;-85
2022/08/08 06:08:15;;;;;;;;;;;19.10;77.80;;;;;;4950643;28;20441;-84
2022/08/08 06:10:41;;;;;;;;;;;19.50;74.60;;;;;;4937740;28;19911;-85
2022/08/08 06:13:09;;;;;;;;;;;19.70;71.80;;;;;;4932435;28;19927;-85
2022/08/08 06:15:37;;;;;;;;;;;20.10;71.80;;;;;;4932925;29;19915;-85
2022/08/08 06:18:04;;;;;;;;;;;20.60;70.80;;;;;;4916257;29;19952;-86
2022/08/08 06:20:29;;;;;;;;;;;20.90;69.20;;;;;;4934756;29;19961;-85
2022/08/08 06:22:55;;;;;;;;;;;21.30;67.60;;;;;;4960092;28;19938;-85
2022/08/08 06:25:22;;;;;;;;;;;21.60;65.50;;;;;;4907832;29;19922;-85
2022/08/08 06:27:52;;;;;;;;;;;21.90;64.20;;;;;;4934590;29;19914;-85
2022/08/08 06:30:19;;;;;;;;;;;22.20;63.70;;;;;;4932052;29;19914;-85
2022/08/08 06:32:57;;;;;;;;;;;22.50;62.40;;;;;;4915495;29;19918;-84
2022/08/08 06:35:27;;;;;;;;;;;22.80;61.70;;;;;;4902442;29;20009;-86
2022/08/08 06:37:57;;;;;;;;;;;23.20;60.20;;;;;;4932086;29;19957;-86
2022/08/08 06:40:28;;;;;;;;;;;23.50;59.20;;;;;;4933717;28;19914;-85
2022/08/08 06:42:55;;;;;;;;;;;23.80;58.20;;;;;;4931456;29;19911;-86
2022/08/08 06:45:26;;;;;;;;;;;24.10;56.90;;;;;;4932841;29;19911;-86
2022/08/08 06:47:51;;;;;;;;;;;24.20;56.70;;;;;;4934705;29;19910;-85
2022/08/08 06:50:18;;;;;;;;;;;24.40;56.70;;;;;;4932977;29;20260;-85
2022/08/08 06:52:44;;;;;;;;;;;24.80;55.40;;;;;;4922982;29;19921;-86
2022/08/08 06:55:11;;;;;;;;;;;25.20;53.30;;;;;;4942637;28;19910;-85
2022/08/08 06:57:36;;;;;;;;;;;25.60;52.50;;;;;;4947268;28;20026;-85
2022/08/08 07:00:05;;;;;;;;;;;25.80;51.40;;;;;;4947012;28;19918;-87
2022/08/08 07:02:32;;;;;;;;;;;26.00;49.50;;;;;;4959914;28;20395;-84
2022/08/08 07:05:01;;;;;;;;;;;26.10;50.60;;;;;;4934504;29;19994;-86
2022/08/08 07:07:31;;;;;;;;;;;26.20;49.40;;;;;;4946588;28;19910;-87
2022/08/08 07:10:04;;;;;;;;;;;26.40;50.30;;;;;;4930633;29;19916;-87
2022/08/08 07:12:40;;;;;;;;;;;26.40;50.00;;;;;;4949495;28;19982;-85
2022/08/08 07:15:08;;;;;;;;;;;26.50;49.30;;;;;;4930218;29;19911;-86
2022/08/08 07:17:55;;;;;;;;;;;26.70;48.80;;;;;;4933333;29;19914;-87
2022/08/08 07:20:26;;;;;;;;;;;27.00;49.20;;;;;;4947562;29;20088;-86
2022/08/08 07:23:16;;;;;;;;;;;27.20;47.50;;;;;;4945567;28;20375;-86
2022/08/08 07:25:44;;;;;;;;;;;27.30;47.70;;;;;;4948740;28;19914;-86
2022/08/08 07:28:11;;;;;;;;;;;27.50;47.30;;;;;;4949745;28;20032;-85
2022/08/08 07:30:39;;;;;;;;;;;27.50;47.60;;;;;;4928668;29;19938;-86
2022/08/08 07:33:10;;;;;;;;;;;27.80;47.40;;;;;;4936362;28;19926;-85
2022/08/08 07:35:40;;;;;;;;;;;28.10;46.90;;;;;;4946029;28;19918;-84
2022/08/08 07:38:08;;;;;;;;;;;28.50;46.10;;;;;;4935904;29;19910;-85
2022/08/08 07:41:00;;;;;;;;;;;28.80;45.00;;;;;;4951884;29;20344;-85
2022/08/08 07:43:31;;;;;;;;;;;29.00;43.50;;;;;;4936370;28;19917;-85
2022/08/08 07:45:58;;;;;;;;;;;28.50;44.20;;;;;;4945677;28;19918;-85
2022/08/08 07:48:24;;;;;;;;;;;28.50;44.50;;;;;;4949901;28;19911;-85
2022/08/08 07:50:52;;;;;;;;;;;28.30;44.00;;;;;;4949524;28;19993;-86
2022/08/08 07:53:24;;;;;;;;;;;27.90;45.80;;;;;;4949339;29;19950;-85
2022/08/08 07:55:53;;;;;;;;;;;27.90;45.90;;;;;;4924906;29;19917;-85
2022/08/08 07:58:27;;;;;;;;;;;27.90;44.40;;;;;;4953178;28;20565;-85
2022/08/08 08:01:00;;;;;;;;;;;27.90;45.00;;;;;;4943006;28;19973;-85
2022/08/08 08:03:35;;;;;;;;;;;27.90;44.40;;;;;;4949404;28;19911;-86
2022/08/08 08:06:03;;;;;;;;;;;27.90;44.20;;;;;;4940670;28;19997;-85
2022/08/08 08:08:39;;;;;;;;;;;27.80;44.20;;;;;;4948477;28;19990;-85
2022/08/08 08:11:10;;;;;;;;;;;27.60;45.10;;;;;;4933451;29;19918;-84
2022/08/08 08:13:54;;;;;;;;;;;27.20;44.80;;;;;;4932874;29;20184;-86
2022/08/08 08:16:25;;;;;;;;;;;27.00;46.50;;;;;;4939250;29;19911;-86
2022/08/08 08:19:00;;;;;;;;;;;26.90;45.20;;;;;;4933548;29;19914;-83
2022/08/08 08:21:46;;;;;;;;;;;26.60;45.40;;;;;;4951834;28;19979;-84
2022/08/08 08:24:27;;;;;;;;;;;26.40;46.30;;;;;;4948509;28;19914;-85
2022/08/08 08:26:53;;;;;;;;;;;26.10;47.70;;;;;;4934204;29;19927;-85
2022/08/08 08:29:20;;;;;;;;;;;26.00;47.50;;;;;;4932851;29;19915;-84
2022/08/08 08:31:46;;;;;;;;;;;25.80;48.40;;;;;;4950362;29;19911;-84
2022/08/08 08:34:13;;;;;;;;;;;25.50;47.60;;;;;;4934355;29;19965;-85
2022/08/08 08:36:40;;;;;;;;;;;25.50;47.50;;;;;;4937037;29;19914;-85
2022/08/08 08:39:06;;;;;;;;;;;25.40;47.80;;;;;;4916811;29;19922;-84
2022/08/08 08:41:39;;;;;;;;;;;25.20;47.10;;;;;;4932211;28;19926;-86
2022/08/08 08:44:06;;;;;;;;;;;25.20;48.50;;;;;;4933392;29;19915;-85
2022/08/08 08:46:33;;;;;;;;;;;25.10;47.00;;;;;;4941802;28;19926;-85
2022/08/08 08:48:59;;;;;;;;;;;25.00;47.30;;;;;;4939858;28;20094;-84
2022/08/08 08:51:26;;;;;;;;;;;24.80;47.50;;;;;;4957364;28;19906;-84
2022/08/08 08:53:55;;;;;;;;;;;24.80;47.90;;;;;;4935242;29;19910;-84
2022/08/08 08:56:25;;;;;;;;;;;24.80;48.60;;;;;;4932060;29;19910;-82
2022/08/08 08:58:58;;;;;;;;;;;24.80;48.60;;;;;;4916790;29;19910;-85
2022/08/08 09:01:31;;;;;;;;;;;24.80;48.30;;;;;;4933760;29;19946;-83
2022/08/08 09:04:00;;;;;;;;;;;24.70;48.50;;;;;;4933843;29;20026;-83
2022/08/08 09:06:34;;;;;;;;;;;24.60;48.30;;;;;;4939036;28;20388;-86
2022/08/08 09:09:07;;;;;;;;;;;24.60;49.90;;;;;;4947086;28;19919;-85
2022/08/08 09:11:34;;;;;;;;;;;24.60;48.60;;;;;;4929822;29;19914;-85
2022/08/08 09:14:01;;;;;;;;;;;24.70;49.70;;;;;;4935382;29;19907;-85
2022/08/08 09:16:29;;;;;;;;;;;24.70;47.70;;;;;;4934779;29;20651;-83
2022/08/08 09:18:56;;;;;;;;;;;24.60;49.60;;;;;;4928202;28;20001;-85
2022/08/08 09:21:22;;;;;;;;;;;24.50;48.90;;;;;;4948877;28;19917;-84
2022/08/08 09:23:48;;;;;;;;;;;24.50;48.50;;;;;;4936868;28;19961;-85
2022/08/08 09:26:18;;;;;;;;;;;24.50;49.30;;;;;;4936464;29;19914;-84
2022/08/08 09:28:44;;;;;;;;;;;24.50;49.60;;;;;;4931777;29;20289;-84
2022/08/08 09:31:15;;;;;;;;;;;24.50;50.90;;;;;;4940686;28;19910;-84
2022/08/08 09:33:45;;;;;;;;;;;24.50;48.30;;;;;;4935113;28;19945;-84
2022/08/08 09:36:21;;;;;;;;;;;24.50;49.10;;;;;;4934596;29;19910;-84
2022/08/08 09:38:50;;;;;;;;;;;24.50;48.60;;;;;;4944513;28;19914;-83
2022/08/08 09:41:16;;;;;;;;;;;24.60;48.20;;;;;;4943295;28;19911;-83
2022/08/08 09:43:48;;;;;;;;;;;24.60;48.30;;;;;;4950439;28;19929;-85
2022/08/08 09:46:15;;;;;;;;;;;24.60;47.70;;;;;;4943148;28;19922;-84
2022/08/08 09:48:44;;;;;;;;;;;24.60;49.20;;;;;;4931626;28;20299;-85
2022/08/08 09:51:13;;;;;;;;;;;24.60;48.60;;;;;;4947822;28;19911;-84
2022/08/08 09:53:47;;;;;;;;;;;24.50;48.80;;;;;;4946094;28;19920;-83
2022/08/08 09:56:13;;;;;;;;;;;24.50;49.00;;;;;;4944790;28;20026;-85
2022/08/08 09:58:43;;;;;;;;;;;24.50;50.30;;;;;;4928258;29;19911;-84
2022/08/08 10:01:09;;;;;;;;;;;24.60;50.10;;;;;;4942473;29;19957;-82
2022/08/08 10:03:35;;;;;;;;;;;24.60;49.70;;;;;;4934866;28;19918;-84
2022/08/08 10:06:21;;;;;;;;;;;24.70;51.30;;;;;;4943102;28;19911;-84
2022/08/08 10:08:48;;;;;;;;;;;24.70;49.70;;;;;;4947307;28;19919;-85
2022/08/08 10:11:18;;;;;;;;;;;24.80;50.40;;;;;;4940859;29;19969;-83
2022/08/08 10:13:54;;;;;;;;;;;24.80;46.40;;;;;;4924679;29;19915;-84
2022/08/08 10:16:20;;;;;;;;;;;24.70;48.20;;;;;;4920960;29;19946;-84
2022/08/08 10:18:46;;;;;;;;;;;24.70;49.80;;;;;;4959062;28;19958;-84
2022/08/08 10:21:16;;;;;;;;;;;24.70;50.20;;;;;;4950295;28;19910;-86
2022/08/08 10:23:46;;;;;;;;;;;24.80;48.80;;;;;;4933535;29;19910;-85
2022/08/08 10:26:15;;;;;;;;;;;24.80;45.30;;;;;;4951379;28;20509;-84
2022/08/08 10:28:51;;;;;;;;;;;24.80;44.90;;;;;;4947191;29;19950;-84
2022/08/08 10:34:03;;;;;;;;;;;24.70;45.00;;;;;;4932042;29;19921;-85
2022/08/08 10:36:29;;;;;;;;;;;24.70;45.50;;;;;;4941435;28;19911;-86
2022/08/08 10:38:57;;;;;;;;;;;24.70;45.20;;;;;;4939618;28;20030;-84
2022/08/08 10:41:25;;;;;;;;;;;24.70;44.80;;;;;;4944263;29;20390;-85
2022/08/08 10:43:51;;;;;;;;;;;24.70;45.90;;;;;;4946244;28;19917;-85
2022/08/08 10:46:26;;;;;;;;;;;24.60;44.00;;;;;;4924890;28;19915;-84
2022/08/08 10:48:53;;;;;;;;;;;24.60;44.20;;;;;;4936912;28;19919;-84
2022/08/08 10:51:20;;;;;;;;;;;24.60;44.90;;;;;;4940139;29;19915;-84
2022/08/08 10:53:46;;;;;;;;;;;24.70;43.90;;;;;;4932935;29;20239;-84
2022/08/08 10:56:12;;;;;;;;;;;24.70;44.20;;;;;;4945914;28;20578;-84
2022/08/08 10:58:38;;;;;;;;;;;24.80;43.90;;;;;;4917962;29;19914;-85
2022/08/08 11:01:07;;;;;;;;;;;24.80;44.80;;;;;;4945829;29;20329;-85
2022/08/08 11:03:43;;;;;;;;;;;24.90;42.40;;;;;;4933239;29;19914;-84
2022/08/08 11:06:09;;;;;;;;;;;24.90;42.90;;;;;;4933341;29;19918;-86
2022/08/08 11:08:35;;;;;;;;;;;24.90;43.80;;;;;;4934141;29;19914;-84
2022/08/08 11:11:05;;;;;;;;;;;24.90;41.40;;;;;;4925439;29;20408;-83
2022/08/08 11:13:41;;;;;;;;;;;24.80;43.50;;;;;;4928306;29;19919;-85
2022/08/08 11:16:07;;;;;;;;;;;24.90;43.80;;;;;;4944743;29;19917;-85
2022/08/08 11:18:34;;;;;;;;;;;24.80;42.90;;;;;;4953573;28;19972;-85
2022/08/08 11:21:01;;;;;;;;;;;24.90;42.90;;;;;;4953389;28;19922;-83
2022/08/08 11:23:30;;;;;;;;;;;24.90;43.50;;;;;;4933857;29;19994;-85
2022/08/08 11:25:56;;;;;;;;;;;25.00;43.20;;;;;;4939910;29;19921;-85
2022/08/08 11:28:23;;;;;;;;;;;25.00;41.90;;;;;;4951249;28;19915;-85
2022/08/08 11:30:48;;;;;;;;;;;25.10;43.90;;;;;;4939483;29;20370;-85
2022/08/08 11:33:15;;;;;;;;;;;25.10;42.70;;;;;;4949212;28;19976;-84
2022/08/08 11:35:41;;;;;;;;;;;25.00;44.40;;;;;;4929711;29;19943;-85
2022/08/08 11:38:07;;;;;;;;;;;25.10;44.10;;;;;;4934237;29;19921;-84
2022/08/08 11:40:33;;;;;;;;;;;25.20;44.10;;;;;;4952697;28;19914;-84
2022/08/08 11:42:59;;;;;;;;;;;25.30;43.50;;;;;;4935938;29;19906;-84
2022/08/08 11:45:24;;;;;;;;;;;25.40;41.90;;;;;;4932902;28;20035;-85
2022/08/08 11:47:50;;;;;;;;;;;25.50;40.80;;;;;;4952927;28;19964;-84
2022/08/08 11:50:20;;;;;;;;;;;25.60;41.10;;;;;;4952580;28;19920;-85
2022/08/08 11:52:46;;;;;;;;;;;25.60;43.20;;;;;;4936085;29;19919;-84
2022/08/08 11:55:18;;;;;;;;;;;25.70;43.80;;;;;;4933288;29;19915;-84
2022/08/08 11:57:44;;;;;;;;;;;25.80;44.90;;;;;;4949185;28;19911;-83
2022/08/08 12:00:15;;;;;;;;;;;26.00;42.20;;;;;;4933564;29;19942;-85
2022/08/08 12:02:53;;;;;;;;;;;26.10;41.70;;;;;;4917504;29;19921;-83
2022/08/08 12:05:29;;;;;;;;;;;26.00;40.20;;;;;;4935233;29;19914;-83
2022/08/08 12:07:55;;;;;;;;;;;26.00;41.10;;;;;;4936472;29;20406;-86
2022/08/08 12:10:22;;;;;;;;;;;25.90;41.00;;;;;;4952049;29;19918;-84
2022/08/08 12:12:48;;;;;;;;;;;26.00;42.80;;;;;;4932663;29;19926;-85
2022/08/08 12:15:24;;;;;;;;;;;26.10;42.20;;;;;;4917435;29;19958;-86
2022/08/08 12:17:50;;;;;;;;;;;26.30;43.20;;;;;;4946640;28;19918;-84
2022/08/08 12:20:16;;;;;;;;;;;26.50;40.70;;;;;;4918147;29;20394;-83
2022/08/08 12:22:46;;;;;;;;;;;26.70;42.00;;;;;;4932877;29;19911;-84
2022/08/08 12:25:18;;;;;;;;;;;26.80;43.50;;;;;;4932705;28;19911;-83
2022/08/08 12:27:44;;;;;;;;;;;26.90;42.10;;;;;;4936346;29;19910;-85
2022/08/08 12:30:10;;;;;;;;;;;26.90;40.90;;;;;;4951226;28;20512;-82
2022/08/08 12:32:46;;;;;;;;;;;27.00;39.70;;;;;;4932805;29;19918;-84
2022/08/08 12:35:20;;;;;;;;;;;26.90;40.90;;;;;;4932785;28;19938;-85
2022/08/08 12:37:57;;;;;;;;;;;27.00;40.00;;;;;;4952467;29;19986;-85
2022/08/08 12:40:22;;;;;;;;;;;27.00;41.40;;;;;;4941449;29;20331;-84
2022/08/08 12:42:48;;;;;;;;;;;27.00;40.50;;;;;;4935091;29;19921;-85
2022/08/08 12:45:14;;;;;;;;;;;27.10;42.30;;;;;;4932737;29;19915;-85
2022/08/08 12:47:40;;;;;;;;;;;27.30;41.80;;;;;;4938104;29;19921;-84
2022/08/08 12:50:06;;;;;;;;;;;27.60;42.80;;;;;;4931392;29;20253;-83
2022/08/08 12:52:38;;;;;;;;;;;27.90;40.20;;;;;;4948957;28;19921;-85
2022/08/08 12:55:13;;;;;;;;;;;28.10;40.10;;;;;;4902281;29;19921;-85
2022/08/08 12:57:39;;;;;;;;;;;28.30;39.80;;;;;;4916646;29;19915;-84
2022/08/08 13:00:05;;;;;;;;;;;28.50;38.10;;;;;;4916415;28;19917;-84
2022/08/08 13:02:32;;;;;;;;;;;28.50;39.20;;;;;;4963391;28;19911;-86
2022/08/08 13:05:00;;;;;;;;;;;28.70;39.80;;;;;;4931447;29;19911;-84
2022/08/08 13:07:36;;;;;;;;;;;28.80;39.70;;;;;;4951459;28;19914;-85
2022/08/08 13:10:06;;;;;;;;;;;29.00;40.10;;;;;;4952950;28;19914;-86
2022/08/08 13:12:36;;;;;;;;;;;29.10;39.40;;;;;;4932383;29;20402;-84
2022/08/08 13:15:09;;;;;;;;;;;29.30;37.30;;;;;;4931169;29;19910;-84
2022/08/08 13:17:35;;;;;;;;;;;29.40;39.60;;;;;;4946883;28;19962;-84
2022/08/08 13:20:02;;;;;;;;;;;29.50;39.60;;;;;;4941930;29;19949;-85
2022/08/08 13:22:28;;;;;;;;;;;29.40;38.10;;;;;;4951766;28;19910;-85
2022/08/08 13:24:54;;;;;;;;;;;29.40;37.40;;;;;;4931273;28;20434;-85
2022/08/08 13:27:27;;;;;;;;;;;29.50;36.60;;;;;;4950640;28;20045;-84
2022/08/08 13:29:53;;;;;;;;;;;29.50;36.40;;;;;;4935101;28;19926;-85
2022/08/08 13:32:20;;;;;;;;;;;29.50;38.10;;;;;;4943434;29;19918;-86
2022/08/08 13:34:50;;;;;;;;;;;29.30;36.60;;;;;;4950071;28;19914;-84
2022/08/08 13:37:16;;;;;;;;;;;29.20;38.00;;;;;;4933162;28;19914;-84
2022/08/08 13:39:43;;;;;;;;;;;29.00;38.00;;;;;;4942313;29;19942;-83
2022/08/08 13:42:09;;;;;;;;;;;28.80;38.20;;;;;;4928201;28;19914;-85
2022/08/08 13:44:34;;;;;;;;;;;28.70;38.00;;;;;;4930174;29;20006;-85
2022/08/08 13:47:02;;;;;;;;;;;28.50;39.50;;;;;;4945956;28;19990;-84
2022/08/08 13:49:31;;;;;;;;;;;28.40;38.60;;;;;;4950591;28;19914;-85
2022/08/08 13:51:58;;;;;;;;;;;28.30;40.70;;;;;;4927005;28;20523;-85
2022/08/08 13:54:24;;;;;;;;;;;28.20;39.70;;;;;;4914613;29;20375;-85
2022/08/08 13:57:00;;;;;;;;;;;28.10;39.30;;;;;;4944674;28;19970;-85
2022/08/08 13:59:36;;;;;;;;;;;28.10;40.90;;;;;;4955415;28;20327;-85
2022/08/08 14:02:02;;;;;;;;;;;28.10;38.00;;;;;;4947668;29;20367;-85
2022/08/08 14:04:28;;;;;;;;;;;28.00;37.30;;;;;;4949410;28;19958;-86
2022/08/08 14:07:01;;;;;;;;;;;27.80;39.00;;;;;;4949850;28;20322;-86
2022/08/08 14:09:30;;;;;;;;;;;27.70;37.60;;;;;;4966952;28;20014;-85
2022/08/08 14:11:57;;;;;;;;;;;27.60;38.70;;;;;;4943731;28;19921;-86
2022/08/08 14:14:33;;;;;;;;;;;27.50;39.30;;;;;;4938278;28;20379;-84
2022/08/08 14:17:01;;;;;;;;;;;27.50;38.30;;;;;;4939385;28;19917;-85
2022/08/08 14:19:31;;;;;;;;;;;27.50;37.70;;;;;;4934772;29;19921;-85
2022/08/08 14:21:58;;;;;;;;;;;27.60;38.40;;;;;;4931366;28;19910;-84
2022/08/08 14:24:30;;;;;;;;;;;27.70;39.10;;;;;;4930303;29;19932;-85
2022/08/08 14:26:56;;;;;;;;;;;27.80;38.50;;;;;;4933863;29;20002;-85
2022/08/08 14:29:22;;;;;;;;;;;27.70;37.90;;;;;;4950064;28;20013;-84
2022/08/08 14:31:50;;;;;;;;;;;27.50;38.90;;;;;;4933082;28;19953;-86
2022/08/08 14:34:16;;;;;;;;;;;27.40;38.90;;;;;;4915418;29;19915;-86
2022/08/08 14:36:41;;;;;;;;;;;27.30;38.70;;;;;;4926518;28;19930;-84
2022/08/08 14:39:07;;;;;;;;;;;27.20;38.90;;;;;;4949434;28;19914;-85
2022/08/08 14:41:40;;;;;;;;;;;27.00;40.50;;;;;;4941681;28;19924;-84
2022/08/08 14:44:07;;;;;;;;;;;26.90;39.20;;;;;;4930338;29;19921;-86
2022/08/08 14:46:33;;;;;;;;;;;26.90;39.30;;;;;;4932666;29;20411;-87